Time;durP1;ratioP1;P1;durP2;ratioP2;P2;SDS_P1;SDS_P2;PMS_P1;PMS_P2;Temp;Humidity;BMP_temperature;BMP_pressure;BME280_temperature;BME280_humidity;BME280_pressure;Samples;Min_cycle;Max_cycle;Signal;HPM_P1;HPM_P2
2022/05/25 00:02:19;;;;;;;;;11.00;11.00;;;27.82;97339.31;;;;117767;1187;25185;-63
2022/05/25 00:04:49;;;;;;;;;10.75;10.00;;;27.81;97337.87;;;;117408;1189;25640;-62
2022/05/25 00:07:20;;;;;;;;;11.75;9.25;;;27.81;97335.87;;;;117879;1187;25396;-64
2022/05/25 00:09:53;;;;;;;;;10.33;8.33;;;27.79;97329.09;;;;117903;1186;25172;-60
2022/05/25 00:12:23;;;;;;;;;11.75;10.00;;;27.81;97327.03;;;;117849;1186;25074;-64
2022/05/25 00:14:51;;;;;;;;;9.00;8.50;;;27.79;97324.44;;;;117876;1186;24961;-67
2022/05/25 00:17:21;;;;;;;;;10.75;8.75;;;27.76;97323.39;;;;117835;1188;25369;-66
2022/05/25 00:20:02;;;;;;;;;9.75;9.00;;;27.74;97324.52;;;;117775;1187;25096;-64
2022/05/25 00:22:40;;;;;;;;;11.00;10.00;;;27.81;97333.77;;;;117868;1186;26136;-64
2022/05/25 00:25:16;;;;;;;;;8.25;7.25;;;27.81;97335.16;;;;117849;1187;25559;-61
2022/05/25 00:27:46;;;;;;;;;8.00;8.00;;;27.78;97333.94;;;;117877;1186;25157;-64
2022/05/25 00:30:17;;;;;;;;;11.00;9.50;;;27.78;97333.20;;;;117824;1186;25093;-64
2022/05/25 00:32:47;;;;;;;;;11.50;11.50;;;27.76;97334.77;;;;117835;1186;26508;-63
2022/05/25 00:35:18;;;;;;;;;9.00;8.00;;;27.74;97337.48;;;;117855;1186;24870;-60
2022/05/25 00:37:47;;;;;;;;;9.67;7.67;;;27.74;97332.91;;;;117675;1188;24710;-63
2022/05/25 00:40:20;;;;;;;;;8.75;8.75;;;27.73;97333.35;;;;117753;1188;25680;-61
2022/05/25 00:42:49;;;;;;;;;7.50;7.50;;;27.76;97333.09;;;;117859;1188;25531;-63
2022/05/25 00:45:17;;;;;;;;;11.50;10.00;;;27.75;97335.59;;;;117886;1188;25528;-64
2022/05/25 00:47:49;;;;;;;;;11.75;9.25;;;27.75;97344.11;;;;117934;1188;25573;-64
2022/05/25 00:50:21;;;;;;;;;8.75;8.75;;;27.78;97346.73;;;;117570;1188;25414;-63
2022/05/25 00:52:50;;;;;;;;;17.00;10.25;;;27.77;97348.46;;;;117664;1186;24851;-62
2022/05/25 00:55:30;;;;;;;;;9.50;9.00;;;27.76;97348.80;;;;117763;1188;25479;-64
2022/05/25 00:57:59;;;;;;;;;10.75;10.75;;;27.79;97354.20;;;;117565;1188;25481;-64
2022/05/25 01:00:29;;;;;;;;;12.25;9.25;;;27.76;97353.88;;;;117841;1186;25128;-61
2022/05/25 01:03:01;;;;;;;;;8.67;7.67;;;27.73;97354.09;;;;117860;1186;25223;-63
2022/05/25 01:05:33;;;;;;;;;10.25;9.00;;;27.73;97354.00;;;;117690;1188;25556;-61
2022/05/25 01:08:22;;;;;;;;;18.75;13.50;;;27.71;97354.05;;;;117643;1188;25744;-62
2022/05/25 01:11:24;;;;;;;;;12.25;12.00;;;27.73;97355.86;;;;117841;1188;25469;-63
2022/05/25 01:14:04;;;;;;;;;11.25;9.50;;;27.70;97358.41;;;;117801;1186;24847;-61
2022/05/25 01:17:12;;;;;;;;;7.75;7.75;;;27.66;97359.59;;;;117822;1187;25373;-61
2022/05/25 01:19:43;;;;;;;;;11.50;10.50;;;27.68;97350.27;;;;117850;1186;25376;-62
2022/05/25 01:22:31;;;;;;;;;16.00;10.50;;;27.61;97350.71;;;;117831;1186;25112;-60
2022/05/25 01:25:01;;;;;;;;;15.25;11.00;;;27.65;97355.04;;;;117832;1187;25444;-59
2022/05/25 01:27:41;;;;;;;;;11.33;11.33;;;27.61;97352.46;;;;117878;1187;25636;-62
2022/05/25 01:30:35;;;;;;;;;14.00;11.67;;;27.61;97353.21;;;;117716;1188;24752;-62
2022/05/25 01:33:15;;;;;;;;;12.50;11.50;;;27.68;97353.31;;;;117871;1187;25121;-60
2022/05/25 01:35:47;;;;;;;;;19.33;14.67;;;27.68;97352.38;;;;117868;1188;24708;-60
2022/05/25 01:38:40;;;;;;;;;13.75;12.25;;;27.63;97351.06;;;;117836;1188;25546;-62
2022/05/25 01:41:16;;;;;;;;;15.25;12.50;;;27.64;97351.40;;;;117844;1188;26038;-61
2022/05/25 01:43:59;;;;;;;;;18.25;14.25;;;27.59;97354.36;;;;117904;1186;25084;-62
2022/05/25 01:46:57;;;;;;;;;19.00;12.00;;;27.60;97354.52;;;;117743;1188;25479;-62
2022/05/25 01:49:33;;;;;;;;;14.75;12.00;;;27.68;97361.38;;;;117851;1186;25447;-60
2022/05/25 01:52:04;;;;;;;;;12.00;11.25;;;27.66;97360.39;;;;117874;1188;25695;-62
2022/05/25 01:54:36;;;;;;;;;10.50;10.50;;;27.62;97362.55;;;;117871;1187;25135;-62
2022/05/25 01:57:10;;;;;;;;;10.00;8.00;;;27.59;97364.21;;;;117882;1187;25009;-60
2022/05/25 01:59:37;;;;;;;;;11.50;11.50;;;27.58;97364.27;;;;117879;1187;25289;-63
2022/05/25 02:04:56;;;;;;;;;16.50;15.50;;;27.54;97368.52;;;;117868;1186;24930;-62
2022/05/25 02:07:47;;;;;;;;;10.75;10.50;;;27.50;97364.56;;;;117420;1188;24951;-62
2022/05/25 02:10:43;;;;;;;;;14.00;13.50;;;27.49;97362.79;;;;117870;1188;24972;-61
2022/05/25 02:13:20;;;;;;;;;16.25;15.75;;;27.50;97363.12;;;;117868;1186;26124;-61
2022/05/25 02:15:54;;;;;;;;;15.25;11.25;;;27.50;97361.05;;;;117860;1187;25577;-61
2022/05/25 02:18:36;;;;;;;;;16.33;15.67;;;27.48;97358.34;;;;117864;1186;25025;-62
2022/05/25 02:21:13;;;;;;;;;20.33;14.00;;;27.47;97353.20;;;;117872;1187;24904;-60
2022/05/25 02:23:47;;;;;;;;;17.50;13.25;;;27.49;97355.23;;;;117768;1188;25509;-60
2022/05/25 02:26:21;;;;;;;;;14.75;12.50;;;27.50;97349.26;;;;117866;1187;25580;-60
2022/05/25 02:29:03;;;;;;;;;12.33;12.33;;;27.48;97355.84;;;;117669;1189;25132;-61
2022/05/25 02:31:36;;;;;;;;;17.75;15.00;;;27.51;97352.25;;;;117852;1188;25254;-61
2022/05/25 02:34:06;;;;;;;;;17.00;15.25;;;27.48;97351.75;;;;117888;1188;25110;-62
2022/05/25 02:36:36;;;;;;;;;17.00;15.25;;;27.47;97356.98;;;;117934;1187;25038;-62
2022/05/25 02:39:09;;;;;;;;;14.00;13.00;;;27.46;97363.98;;;;117862;1187;25419;-60
2022/05/25 02:41:52;;;;;;;;;11.50;11.25;;;27.44;97365.60;;;;117682;1188;25007;-61
2022/05/25 02:44:20;;;;;;;;;20.33;15.00;;;27.45;97367.38;;;;117931;1188;24917;-61
2022/05/25 02:46:48;;;;;;;;;15.25;15.25;;;27.44;97373.90;;;;117760;1187;25084;-61
2022/05/25 02:49:17;;;;;;;;;20.25;12.50;;;27.42;97372.54;;;;117880;1186;25635;-60
2022/05/25 02:51:46;;;;;;;;;15.67;13.67;;;27.40;97381.38;;;;117817;1188;25408;-62
2022/05/25 02:54:14;;;;;;;;;17.00;14.33;;;27.37;97385.54;;;;117709;1188;26049;-62
2022/05/25 02:56:42;;;;;;;;;19.00;16.00;;;27.38;97387.23;;;;117798;1187;24873;-60
2022/05/25 02:59:10;;;;;;;;;16.25;14.50;;;27.35;97391.89;;;;117861;1188;25188;-62
2022/05/25 03:01:39;;;;;;;;;16.75;15.25;;;27.33;97394.70;;;;117869;1186;25109;-62
2022/05/25 03:04:07;;;;;;;;;16.25;14.25;;;27.33;97397.04;;;;117841;1186;24794;-61
2022/05/25 03:06:35;;;;;;;;;15.00;14.00;;;27.32;97407.58;;;;117851;1187;25368;-60
2022/05/25 03:09:03;;;;;;;;;15.00;11.25;;;27.30;97413.33;;;;117871;1188;25915;-61
2022/05/25 03:11:31;;;;;;;;;16.75;14.00;;;27.30;97413.61;;;;117891;1187;25401;-60
2022/05/25 03:13:59;;;;;;;;;16.00;15.75;;;27.29;97408.66;;;;117714;1188;25386;-60
2022/05/25 03:16:27;;;;;;;;;15.00;13.25;;;27.30;97405.06;;;;117879;1187;25275;-61
2022/05/25 03:18:58;;;;;;;;;11.25;10.25;;;27.30;97409.30;;;;117905;1188;25418;-60
2022/05/25 03:21:28;;;;;;;;;17.00;15.00;;;27.33;97414.92;;;;117751;1187;25508;-61
2022/05/25 03:23:58;;;;;;;;;16.25;14.50;;;27.36;97414.48;;;;117890;1188;25521;-63
2022/05/25 03:26:28;;;;;;;;;14.00;11.33;;;27.36;97418.90;;;;117954;1187;25604;-60
2022/05/25 03:28:58;;;;;;;;;15.25;10.75;;;27.40;97411.33;;;;117780;1186;25523;-61
2022/05/25 03:31:31;;;;;;;;;11.67;11.67;;;27.43;97413.99;;;;117941;1188;25287;-60
2022/05/25 03:34:03;;;;;;;;;17.75;13.75;;;27.43;97417.17;;;;117868;1186;25740;-61
2022/05/25 03:36:34;;;;;;;;;14.00;13.50;;;27.43;97415.86;;;;117719;1188;25098;-60
2022/05/25 03:39:02;;;;;;;;;13.50;11.50;;;27.42;97425.12;;;;117817;1186;25220;-61
2022/05/25 03:41:32;;;;;;;;;13.67;10.33;;;27.39;97423.00;;;;117855;1186;25443;-60
2022/05/25 03:44:02;;;;;;;;;15.75;13.00;;;27.40;97424.19;;;;117837;1188;25241;-62
2022/05/25 03:46:37;;;;;;;;;15.67;13.67;;;27.39;97425.69;;;;117859;1187;25170;-61
2022/05/25 03:49:08;;;;;;;;;18.00;13.75;;;27.41;97427.41;;;;117818;1187;26657;-60
2022/05/25 03:51:36;;;;;;;;;17.50;14.50;;;27.43;97428.81;;;;117813;1188;26465;-62
2022/05/25 03:54:11;;;;;;;;;13.75;12.50;;;27.43;97427.18;;;;117858;1186;25008;-60
2022/05/25 03:56:43;;;;;;;;;13.33;13.00;;;27.46;97428.29;;;;117858;1186;24850;-63
2022/05/25 03:59:11;;;;;;;;;11.25;9.75;;;27.46;97432.53;;;;117832;1188;25743;-61
2022/05/25 04:01:39;;;;;;;;;15.75;12.75;;;27.44;97427.73;;;;117843;1187;25403;-60
2022/05/25 04:04:06;;;;;;;;;13.00;10.00;;;27.44;97424.70;;;;117632;1187;26493;-59
2022/05/25 04:06:35;;;;;;;;;13.50;10.00;;;27.46;97424.85;;;;117843;1188;24860;-62
2022/05/25 04:09:05;;;;;;;;;13.25;9.75;;;27.48;97430.92;;;;117868;1188;25156;-64
2022/05/25 04:11:34;;;;;;;;;25.75;25.75;;;27.51;97432.95;;;;117946;1188;24869;-61
2022/05/25 04:14:03;;;;;;;;;31.00;28.50;;;27.62;97435.30;;;;118015;1188;25314;-61
2022/05/25 04:16:31;;;;;;;;;57.00;48.00;;;27.72;97431.67;;;;117967;1188;25602;-61
2022/05/25 04:19:00;;;;;;;;;28.00;28.00;;;27.77;97422.86;;;;117849;1187;25712;-61
2022/05/25 04:21:27;;;;;;;;;30.00;27.00;;;27.77;97421.82;;;;117949;1187;25075;-61
2022/05/25 04:23:56;;;;;;;;;26.00;25.00;;;27.81;97420.98;;;;117810;1188;25433;-61
2022/05/25 04:26:24;;;;;;;;;31.25;26.50;;;27.85;97423.29;;;;117992;1188;25965;-60
2022/05/25 04:28:56;;;;;;;;;23.00;18.00;;;27.86;97424.55;;;;117817;1188;25735;-60
2022/05/25 04:31:33;;;;;;;;;15.67;13.33;;;27.87;97424.87;;;;117762;1186;25587;-57
2022/05/25 04:34:01;;;;;;;;;19.25;18.75;;;27.89;97424.73;;;;117880;1187;25245;-58
2022/05/25 04:36:32;;;;;;;;;16.25;13.75;;;27.93;97424.30;;;;117905;1186;25691;-59
2022/05/25 04:39:00;;;;;;;;;11.00;10.25;;;27.93;97423.45;;;;117699;1188;25717;-59
2022/05/25 04:41:29;;;;;;;;;16.75;15.50;;;27.98;97426.27;;;;117963;1186;25618;-60
2022/05/25 04:43:58;;;;;;;;;18.75;17.00;;;28.00;97428.16;;;;117899;1188;25488;-61
2022/05/25 04:46:28;;;;;;;;;16.00;12.00;;;27.99;97431.13;;;;117829;1188;24994;-61
2022/05/25 04:49:00;;;;;;;;;24.00;16.75;;;27.96;97436.92;;;;117810;1188;25611;-60
2022/05/25 04:51:31;;;;;;;;;17.00;14.75;;;27.97;97445.05;;;;117809;1187;24776;-59
2022/05/25 04:53:59;;;;;;;;;15.33;15.00;;;27.99;97447.95;;;;118133;1188;24887;-59
2022/05/25 04:59:18;;;;;;;;;15.75;12.75;;;28.04;97455.77;;;;117873;1187;25369;-59
2022/05/25 05:01:50;;;;;;;;;14.00;14.00;;;28.03;97462.02;;;;117926;1186;25378;-61
2022/05/25 05:04:20;;;;;;;;;15.50;13.25;;;28.04;97461.85;;;;117794;1186;25080;-59
2022/05/25 05:06:50;;;;;;;;;15.50;12.50;;;28.02;97467.58;;;;118088;1186;26538;-59
2022/05/25 05:09:19;;;;;;;;;14.67;13.00;;;28.13;97469.52;;;;117905;1188;25555;-60
2022/05/25 05:11:47;;;;;;;;;14.67;13.33;;;28.12;97473.08;;;;117914;1187;25665;-60
2022/05/25 05:14:17;;;;;;;;;13.25;11.50;;;28.17;97476.09;;;;117829;1187;24760;-60
2022/05/25 05:16:44;;;;;;;;;12.33;11.00;;;28.24;97485.61;;;;117916;1187;25686;-58
2022/05/25 05:19:12;;;;;;;;;18.33;16.00;;;28.27;97493.13;;;;117774;1188;25744;-59
2022/05/25 05:21:40;;;;;;;;;20.00;18.00;;;28.25;97494.52;;;;117760;1187;25749;-60
2022/05/25 05:24:08;;;;;;;;;16.75;15.00;;;28.26;97500.05;;;;117930;1188;25705;-59
2022/05/25 05:26:36;;;;;;;;;20.00;16.67;;;28.31;97506.89;;;;117845;1187;25385;-59
2022/05/25 05:29:04;;;;;;;;;13.00;12.75;;;28.31;97512.64;;;;117929;1186;24930;-60
2022/05/25 05:31:32;;;;;;;;;17.67;17.00;;;28.37;97506.63;;;;117697;1188;24803;-61
2022/05/25 05:34:00;;;;;;;;;17.25;15.00;;;28.36;97506.55;;;;117961;1186;25524;-60
2022/05/25 05:36:33;;;;;;;;;12.00;10.25;;;28.44;97509.49;;;;117981;1186;25253;-63
2022/05/25 05:39:04;;;;;;;;;17.75;17.25;;;28.58;97512.27;;;;117838;1187;25708;-59
2022/05/25 05:41:39;;;;;;;;;19.00;13.67;;;28.61;97513.81;;;;117947;1188;25603;-63
2022/05/25 05:44:10;;;;;;;;;18.50;16.75;;;28.63;97513.18;;;;117880;1188;25307;-60
2022/05/25 05:46:41;;;;;;;;;14.50;13.75;;;28.65;97516.58;;;;117738;1189;25577;-63
2022/05/25 05:49:10;;;;;;;;;15.25;13.50;;;28.65;97518.13;;;;117873;1186;25667;-64
2022/05/25 05:51:41;;;;;;;;;14.75;12.25;;;28.64;97523.45;;;;117910;1187;24818;-61
2022/05/25 05:54:10;;;;;;;;;15.50;14.75;;;28.65;97530.76;;;;117668;1186;25697;-61
2022/05/25 05:56:38;;;;;;;;;14.67;10.67;;;28.64;97532.54;;;;117791;1188;25408;-64
2022/05/25 05:59:06;;;;;;;;;16.75;15.00;;;28.61;97530.23;;;;117662;1187;25575;-63
2022/05/25 06:01:34;;;;;;;;;14.25;11.75;;;28.64;97534.69;;;;117845;1187;26161;-61
2022/05/25 06:04:03;;;;;;;;;13.33;12.00;;;28.62;97537.67;;;;117875;1188;25400;-65
2022/05/25 06:06:31;;;;;;;;;18.33;14.67;;;28.60;97539.72;;;;117718;1187;25669;-62
2022/05/25 06:08:59;;;;;;;;;19.00;13.67;;;28.57;97546.59;;;;117590;1189;25126;-65
2022/05/25 06:11:27;;;;;;;;;15.25;15.25;;;28.59;97551.00;;;;117878;1186;25551;-64
2022/05/25 06:13:55;;;;;;;;;15.50;12.75;;;28.57;97549.66;;;;117694;1188;25004;-61
2022/05/25 06:19:29;;;;;;;;;19.67;14.33;;;28.57;97561.95;;;;117826;1188;25397;-63
2022/05/25 06:21:59;;;;;;;;;16.25;14.25;;;28.54;97567.20;;;;117837;1187;24945;-61
2022/05/25 06:24:29;;;;;;;;;15.00;11.00;;;28.50;97564.69;;;;117728;1188;25597;-63
2022/05/25 06:26:57;;;;;;;;;14.00;12.25;;;28.43;97565.79;;;;117872;1186;25017;-62
2022/05/25 06:29:25;;;;;;;;;14.67;14.67;;;28.43;97566.22;;;;118057;1186;24862;-61
2022/05/25 06:31:57;;;;;;;;;19.25;14.25;;;28.49;97569.67;;;;117907;1188;25153;-60
2022/05/25 06:34:25;;;;;;;;;16.00;12.00;;;28.48;97573.92;;;;117938;1188;25316;-64
2022/05/25 06:36:53;;;;;;;;;15.50;15.50;;;28.45;97572.51;;;;117558;1188;25225;-62
2022/05/25 06:39:21;;;;;;;;;17.00;15.33;;;28.43;97565.91;;;;117768;1188;24988;-63
2022/05/25 06:41:49;;;;;;;;;10.75;10.75;;;28.45;97564.14;;;;117854;1188;25112;-60
2022/05/25 06:44:17;;;;;;;;;20.50;15.75;;;28.44;97566.20;;;;118043;1188;24966;-64
2022/05/25 06:46:46;;;;;;;;;16.67;11.33;;;28.46;97565.77;;;;117654;1187;24972;-62
2022/05/25 06:49:14;;;;;;;;;11.00;9.50;;;28.43;97568.04;;;;117506;1188;25011;-63
2022/05/25 06:51:42;;;;;;;;;20.50;11.00;;;28.39;97566.77;;;;117967;1188;25717;-61
2022/05/25 06:54:13;;;;;;;;;15.50;15.00;;;28.42;97563.16;;;;117737;1188;24848;-61
2022/05/25 06:56:41;;;;;;;;;17.00;15.75;;;28.37;97555.24;;;;117669;1188;25179;-62
2022/05/25 06:59:09;;;;;;;;;16.00;14.67;;;28.37;97546.08;;;;117830;1187;24917;-61
2022/05/25 07:01:39;;;;;;;;;15.75;12.50;;;28.35;97530.15;;;;117532;1189;25729;-62
2022/05/25 07:04:08;;;;;;;;;13.00;10.75;;;28.37;97530.22;;;;117849;1187;26227;-63
2022/05/25 07:06:37;;;;;;;;;13.75;10.25;;;28.36;97532.58;;;;117849;1187;25019;-63
2022/05/25 07:09:07;;;;;;;;;13.67;12.00;;;28.33;97533.02;;;;117472;1189;24819;-63
2022/05/25 07:11:37;;;;;;;;;16.75;14.00;;;28.34;97529.07;;;;117480;1186;25047;-61
2022/05/25 07:14:05;;;;;;;;;17.00;15.00;;;28.35;97524.87;;;;117908;1187;24995;-63
2022/05/25 07:16:34;;;;;;;;;13.75;13.75;;;28.35;97508.34;;;;117904;1186;25052;-62
2022/05/25 07:19:03;;;;;;;;;18.50;16.75;;;28.35;97496.38;;;;117871;1188;25180;-62
2022/05/25 07:21:31;;;;;;;;;18.00;14.50;;;28.35;97495.96;;;;117859;1188;25254;-62
2022/05/25 07:24:00;;;;;;;;;19.00;18.00;;;28.36;97492.99;;;;117608;1186;25493;-62
2022/05/25 07:26:30;;;;;;;;;16.25;15.25;;;28.34;97489.80;;;;117856;1188;25255;-60
2022/05/25 07:28:57;;;;;;;;;13.50;13.50;;;28.36;97485.13;;;;117439;1188;25206;-60
2022/05/25 07:31:29;;;;;;;;;18.33;15.00;;;28.34;97478.70;;;;117877;1187;25543;-60
2022/05/25 07:34:05;;;;;;;;;22.00;18.25;;;28.36;97474.38;;;;117468;1188;25036;-62
2022/05/25 07:36:35;;;;;;;;;14.75;14.25;;;28.40;97470.88;;;;117915;1186;24987;-61
2022/05/25 07:39:11;;;;;;;;;20.50;19.00;;;28.39;97465.30;;;;117963;1187;26120;-60
2022/05/25 07:41:46;;;;;;;;;11.75;9.50;;;28.51;97461.98;;;;117857;1187;24896;-63
2022/05/25 07:44:27;;;;;;;;;18.00;16.50;;;28.47;97459.30;;;;117608;1188;25559;-64
2022/05/25 07:47:00;;;;;;;;;16.33;15.33;;;28.55;97454.42;;;;117925;1187;25151;-60
2022/05/25 07:49:28;;;;;;;;;17.50;15.25;;;28.60;97452.30;;;;117896;1188;25369;-62
2022/05/25 07:51:58;;;;;;;;;18.33;16.00;;;28.59;97443.82;;;;117808;1187;24825;-61
2022/05/25 07:54:26;;;;;;;;;16.25;14.50;;;28.57;97438.16;;;;117940;1188;24995;-62
2022/05/25 07:56:55;;;;;;;;;18.67;15.33;;;28.57;97434.98;;;;117943;1188;25634;-64
2022/05/25 07:59:23;;;;;;;;;18.00;14.75;;;28.59;97431.96;;;;118014;1188;24756;-60
2022/05/25 08:07:34;;;;;;;;;21.67;18.33;;;28.61;97433.63;;;;117841;1188;25697;-64
2022/05/25 08:10:07;;;;;;;;;19.00;17.00;;;28.56;97432.73;;;;117846;1187;24708;-63
2022/05/25 08:12:37;;;;;;;;;16.25;13.25;;;28.54;97433.54;;;;117959;1188;25153;-68
2022/05/25 08:15:06;;;;;;;;;19.50;16.75;;;28.58;97440.45;;;;117816;1186;25033;-58
2022/05/25 08:17:34;;;;;;;;;14.75;14.25;;;28.57;97444.38;;;;117907;1188;26097;-67
2022/05/25 08:20:04;;;;;;;;;17.33;15.33;;;28.58;97436.30;;;;118044;1187;25943;-61
2022/05/25 08:22:33;;;;;;;;;20.75;17.00;;;28.62;97429.20;;;;117729;1188;25600;-65
2022/05/25 08:25:01;;;;;;;;;16.67;16.00;;;28.59;97426.70;;;;117843;1186;26258;-62
2022/05/25 08:27:29;;;;;;;;;19.25;17.75;;;28.56;97428.74;;;;117827;1188;25097;-61
2022/05/25 08:29:57;;;;;;;;;19.75;18.00;;;28.53;97435.79;;;;117828;1188;25112;-65
2022/05/25 08:32:25;;;;;;;;;18.25;17.00;;;28.52;97438.13;;;;117929;1187;24776;-58
2022/05/25 08:34:53;;;;;;;;;16.75;15.75;;;28.54;97442.25;;;;117876;1187;25253;-71
2022/05/25 08:37:21;;;;;;;;;16.00;14.67;;;28.51;97443.00;;;;117942;1188;24950;-69
2022/05/25 08:39:49;;;;;;;;;24.00;19.25;;;28.54;97451.72;;;;117980;1188;24903;-63
2022/05/25 08:42:20;;;;;;;;;18.25;17.75;;;28.57;97456.28;;;;117863;1188;25094;-66
2022/05/25 08:44:49;;;;;;;;;17.00;13.50;;;28.56;97466.23;;;;117881;1186;25136;-65
2022/05/25 08:47:17;;;;;;;;;13.25;13.25;;;28.59;97477.51;;;;117438;1188;24961;-67
2022/05/25 08:49:47;;;;;;;;;20.67;15.67;;;28.56;97480.05;;;;117905;1188;25315;-62
2022/05/25 08:52:25;;;;;;;;;21.00;16.75;;;28.57;97484.34;;;;117922;1187;24871;-60
2022/05/25 08:54:52;;;;;;;;;16.50;15.50;;;28.58;97486.58;;;;117831;1188;24974;-59
2022/05/25 08:57:55;;;;;;;;;17.25;16.00;;;28.55;97485.35;;;;117924;1187;25348;-61
2022/05/25 09:00:23;;;;;;;;;20.50;16.50;;;28.68;97478.69;;;;117536;1188;25560;-60
2022/05/25 09:03:07;;;;;;;;;21.00;16.67;;;28.63;97477.84;;;;117534;1188;25688;-60
2022/05/25 09:05:35;;;;;;;;;14.25;14.25;;;28.66;97478.47;;;;117814;1186;25645;-59
2022/05/25 09:08:21;;;;;;;;;20.00;16.75;;;28.60;97478.47;;;;117853;1187;26372;-60
2022/05/25 09:11:05;;;;;;;;;16.00;14.25;;;28.62;97478.70;;;;117859;1188;25075;-61
2022/05/25 09:14:20;;;;;;;;;13.50;13.50;;;28.65;97481.07;;;;117838;1186;25053;-59
2022/05/25 09:16:50;;;;;;;;;18.50;15.75;;;28.76;97481.11;;;;117040;1194;24766;-60
2022/05/25 09:19:34;;;;;;;;;18.50;13.25;;;28.66;97485.14;;;;117098;1194;25410;-64
2022/05/25 09:22:09;;;;;;;;;16.50;14.25;;;28.67;97483.82;;;;117658;1188;25301;-63
2022/05/25 09:24:38;;;;;;;;;18.50;16.75;;;28.64;97489.33;;;;117839;1188;25716;-62
2022/05/25 09:27:08;;;;;;;;;18.00;15.25;;;28.57;97488.85;;;;117980;1186;25178;-63
2022/05/25 09:29:36;;;;;;;;;22.75;18.50;;;28.59;97488.14;;;;117445;1188;25325;-60
2022/05/25 09:32:26;;;;;;;;;15.75;15.50;;;28.55;97482.86;;;;117920;1188;24940;-59
2022/05/25 09:35:21;;;;;;;;;17.50;14.75;;;28.57;97480.61;;;;117822;1188;26368;-62
2022/05/25 09:38:27;;;;;;;;;17.00;12.50;;;28.63;97477.73;;;;117410;1189;25458;-61
2022/05/25 09:40:55;;;;;;;;;14.50;11.25;;;28.70;97472.95;;;;117443;1187;25388;-63
2022/05/25 09:43:25;;;;;;;;;15.75;14.50;;;28.61;97470.45;;;;117801;1187;25517;-63
2022/05/25 09:46:08;;;;;;;;;12.00;12.00;;;28.58;97474.19;;;;117827;1188;24880;-62
2022/05/25 09:48:47;;;;;;;;;18.00;16.33;;;28.58;97469.67;;;;117444;1188;24878;-59
2022/05/25 09:51:30;;;;;;;;;14.00;13.25;;;28.58;97467.91;;;;117667;1188;25520;-65
2022/05/25 09:54:15;;;;;;;;;17.75;16.00;;;28.59;97470.42;;;;117759;1187;24808;-60
2022/05/25 09:56:50;;;;;;;;;19.75;14.00;;;28.58;97472.42;;;;117871;1186;26226;-63
2022/05/25 09:59:40;;;;;;;;;15.25;14.50;;;28.59;97478.38;;;;117864;1187;25847;-60
2022/05/25 10:02:17;;;;;;;;;16.67;16.67;;;28.61;97476.55;;;;117616;1186;25655;-60
2022/05/25 10:04:53;;;;;;;;;16.00;13.67;;;28.57;97469.77;;;;117810;1186;25134;-61
2022/05/25 10:07:30;;;;;;;;;20.00;16.50;;;28.52;97467.45;;;;117836;1186;25143;-62
2022/05/25 10:10:03;;;;;;;;;17.25;15.50;;;28.52;97464.48;;;;117904;1186;25414;-64
2022/05/25 10:12:32;;;;;;;;;20.00;15.75;;;28.57;97464.05;;;;117762;1186;25473;-66
2022/05/25 10:15:13;;;;;;;;;16.00;15.00;;;28.53;97465.42;;;;117799;1187;24728;-59
2022/05/25 10:17:46;;;;;;;;;19.75;17.00;;;28.57;97462.95;;;;117828;1186;25104;-62
2022/05/25 10:20:22;;;;;;;;;19.50;17.50;;;28.55;97459.27;;;;117681;1187;25114;-63
2022/05/25 10:23:02;;;;;;;;;15.00;12.50;;;28.51;97459.55;;;;117862;1187;25598;-63
2022/05/25 10:25:39;;;;;;;;;17.00;16.33;;;28.54;97457.90;;;;117852;1187;25464;-59
2022/05/25 10:28:26;;;;;;;;;14.00;14.00;;;28.54;97454.87;;;;118148;1186;25475;-59
2022/05/25 10:37:07;;;;;;;;;15.00;12.75;;;28.68;97457.37;;;;117913;1188;25775;-63
2022/05/25 10:40:06;;;;;;;;;17.00;15.67;;;28.62;97450.10;;;;117842;1188;25047;-63
2022/05/25 10:42:39;;;;;;;;;16.00;13.33;;;28.70;97448.20;;;;117515;1189;25419;-61
2022/05/25 10:45:20;;;;;;;;;9.25;9.00;;;28.65;97443.68;;;;117826;1186;25475;-60
2022/05/25 10:47:57;;;;;;;;;13.00;11.75;;;28.59;97444.63;;;;117831;1186;25098;-61
2022/05/25 10:51:02;;;;;;;;;20.00;16.50;;;28.55;97438.89;;;;117810;1188;26010;-62
2022/05/25 10:57:07;;;;;;;;;12.75;12.75;;;28.72;97441.29;;;;117784;1188;25429;-60
2022/05/25 11:00:01;;;;;;;;;18.33;16.00;;;28.66;97444.03;;;;113158;1182;3010570;-62
2022/05/25 11:02:34;;;;;;;;;19.00;13.50;;;28.85;97439.99;;;;117577;1186;25485;-62
2022/05/25 11:05:22;;;;;;;;;22.25;21.00;;;28.81;97440.94;;;;117907;1186;24899;-62
2022/05/25 11:07:55;;;;;;;;;17.67;15.67;;;28.78;97437.08;;;;117783;1188;25426;-61
2022/05/25 11:10:44;;;;;;;;;20.33;15.00;;;28.71;97434.75;;;;117414;1189;25080;-65
2022/05/25 11:13:43;;;;;;;;;20.33;16.00;;;28.68;97438.94;;;;117791;1187;24836;-73
2022/05/25 11:16:29;;;;;;;;;14.00;14.00;;;28.70;97438.95;;;;117719;1187;25564;-60
2022/05/25 11:19:31;;;;;;;;;20.50;16.50;;;28.67;97440.17;;;;117781;1188;26337;-63
2022/05/25 11:22:14;;;;;;;;;19.50;15.75;;;28.76;97440.42;;;;117720;1188;25476;-64
2022/05/25 11:40:53;;;;;;;;;15.75;13.00;;;29.60;97421.14;;;;115947;1207;23644;-60
2022/05/25 11:43:28;;;;;;;;;17.00;14.25;;;29.92;97420.08;;;;116962;1193;24730;-62
2022/05/25 11:46:05;;;;;;;;;13.25;11.50;;;29.73;97420.06;;;;116999;1194;24727;-61
2022/05/25 11:49:31;;;;;;;;;19.50;15.50;;;29.64;97421.25;;;;117667;1190;24812;-69
2022/05/25 11:52:21;;;;;;;;;19.00;14.75;;;29.67;97421.77;;;;118788;1191;25700;-60
2022/05/25 11:55:00;;;;;;;;;19.67;17.00;;;30.01;97408.43;;;;117690;1190;24807;-63
2022/05/25 11:57:50;;;;;;;;;18.75;15.25;;;29.78;97411.81;;;;117411;1189;25765;-67
2022/05/25 12:00:37;;;;;;;;;21.50;18.25;;;29.48;97405.37;;;;117520;1189;25215;-71
2022/05/25 12:03:11;;;;;;;;;15.33;13.67;;;29.32;97403.41;;;;117509;1190;25600;-64
2022/05/25 12:05:58;;;;;;;;;17.75;15.00;;;29.19;97408.02;;;;118538;1189;25139;-63
2022/05/25 12:08:44;;;;;;;;;19.67;16.00;;;29.46;97405.64;;;;117412;1191;25694;-66
2022/05/25 12:11:23;;;;;;;;;21.67;16.00;;;29.28;97401.84;;;;117473;1190;25783;-61
2022/05/25 12:14:06;;;;;;;;;17.00;14.00;;;29.12;97397.01;;;;117536;1191;25344;-63
2022/05/25 12:16:40;;;;;;;;;8.50;5.00;;;29.05;97391.21;;;;117469;1191;24948;-68
2022/05/25 12:19:19;;;;;;;;;18.50;16.00;;;28.97;97389.77;;;;117608;1190;25543;-65
2022/05/25 12:21:58;;;;;;;;;11.25;10.00;;;28.96;97391.08;;;;117498;1190;25138;-62
2022/05/25 12:24:43;;;;;;;;;15.33;10.00;;;28.92;97394.88;;;;117505;1191;24923;-68
2022/05/25 12:27:21;;;;;;;;;15.50;13.00;;;28.88;97396.00;;;;117097;1191;25532;-65
2022/05/25 12:29:53;;;;;;;;;16.25;13.25;;;28.82;97393.77;;;;117470;1191;26103;-65
2022/05/25 12:32:29;;;;;;;;;9.50;9.50;;;28.78;97390.77;;;;117508;1189;26333;-69
2022/05/25 12:35:03;;;;;;;;;16.75;15.00;;;28.74;97390.73;;;;117440;1189;25129;-72
2022/05/25 12:37:37;;;;;;;;;15.75;13.25;;;28.70;97384.33;;;;117497;1189;25441;-69
2022/05/25 12:40:41;;;;;;;;;16.50;14.50;;;28.67;97384.15;;;;117556;1190;24901;-69
2022/05/25 12:43:48;;;;;;;;;15.75;12.75;;;28.85;97382.52;;;;117510;1191;25547;-72
2022/05/25 12:49:47;;;;;;;;;17.25;17.25;;;28.89;97376.19;;;;117428;1191;25083;-69
2022/05/25 12:52:31;;;;;;;;;15.25;13.50;;;28.73;97375.41;;;;117383;1190;25746;-71
2022/05/25 12:55:07;;;;;;;;;13.00;11.25;;;28.69;97375.30;;;;117354;1191;25707;-61
2022/05/25 12:57:58;;;;;;;;;17.75;15.00;;;28.64;97376.45;;;;117397;1191;25424;-68
2022/05/25 13:00:34;;;;;;;;;17.00;11.50;;;28.74;97377.63;;;;117408;1191;25732;-60
2022/05/25 13:03:19;;;;;;;;;14.50;13.75;;;28.73;97374.56;;;;117450;1190;25378;-64
2022/05/25 13:05:49;;;;;;;;;18.00;16.25;;;28.71;97372.20;;;;117466;1191;25082;-63
2022/05/25 13:08:53;;;;;;;;;15.25;13.75;;;28.69;97370.34;;;;117492;1190;25091;-66
2022/05/25 13:11:32;;;;;;;;;12.67;12.67;;;28.71;97367.33;;;;117471;1190;25326;-67